sensor_id;sensor_type;location;lat;lon;timestamp;P1;durP1;ratioP1;P2;durP2;ratioP2
80293;SDS011;69594;43.516;1.498;2024-02-26T00:01:26;3.80;;;1.70;;
80293;SDS011;69594;43.516;1.498;2024-02-26T00:03:52;3.00;;;1.85;;
80293;SDS011;69594;43.516;1.498;2024-02-26T00:06:18;5.40;;;1.70;;
80293;SDS011;69594;43.516;1.498;2024-02-26T00:08:44;7.80;;;1.90;;
80293;SDS011;69594;43.516;1.498;2024-02-26T00:11:10;4.25;;;1.45;;
80293;SDS011;69594;43.516;1.498;2024-02-26T00:13:37;7.70;;;2.38;;
80293;SDS011;69594;43.516;1.498;2024-02-26T00:16:06;11.90;;;2.37;;
80293;SDS011;69594;43.516;1.498;2024-02-26T00:18:32;9.43;;;1.83;;
80293;SDS011;69594;43.516;1.498;2024-02-26T00:20:58;5.93;;;1.85;;
80293;SDS011;69594;43.516;1.498;2024-02-26T00:23:24;5.83;;;1.90;;
80293;SDS011;69594;43.516;1.498;2024-02-26T00:25:49;11.03;;;1.80;;
80293;SDS011;69594;43.516;1.498;2024-02-26T00:28:15;6.80;;;1.77;;
80293;SDS011;69594;43.516;1.498;2024-02-26T00:30:40;8.03;;;1.77;;
80293;SDS011;69594;43.516;1.498;2024-02-26T00:33:06;6.67;;;1.83;;
80293;SDS011;69594;43.516;1.498;2024-02-26T00:35:31;7.40;;;2.30;;
80293;SDS011;69594;43.516;1.498;2024-02-26T00:37:57;10.60;;;2.47;;
80293;SDS011;69594;43.516;1.498;2024-02-26T00:40:23;4.18;;;1.70;;
80293;SDS011;69594;43.516;1.498;2024-02-26T00:42:49;5.73;;;2.20;;
80293;SDS011;69594;43.516;1.498;2024-02-26T00:45:15;6.20;;;2.35;;
80293;SDS011;69594;43.516;1.498;2024-02-26T00:47:41;8.00;;;2.53;;
80293;SDS011;69594;43.516;1.498;2024-02-26T00:50:07;9.05;;;2.40;;
80293;SDS011;69594;43.516;1.498;2024-02-26T00:52:33;12.77;;;3.40;;
80293;SDS011;69594;43.516;1.498;2024-02-26T00:54:59;8.70;;;2.50;;
80293;SDS011;69594;43.516;1.498;2024-02-26T00:57:25;4.83;;;2.33;;
80293;SDS011;69594;43.516;1.498;2024-02-26T00:59:51;9.32;;;2.75;;
80293;SDS011;69594;43.516;1.498;2024-02-26T01:02:16;8.33;;;4.20;;
80293;SDS011;69594;43.516;1.498;2024-02-26T01:04:42;11.53;;;3.63;;
80293;SDS011;69594;43.516;1.498;2024-02-26T01:07:07;6.35;;;3.60;;
80293;SDS011;69594;43.516;1.498;2024-02-26T01:09:33;9.02;;;3.72;;
80293;SDS011;69594;43.516;1.498;2024-02-26T01:11:59;8.02;;;3.72;;
80293;SDS011;69594;43.516;1.498;2024-02-26T01:14:25;7.82;;;3.50;;
80293;SDS011;69594;43.516;1.498;2024-02-26T01:16:50;8.48;;;3.58;;
80293;SDS011;69594;43.516;1.498;2024-02-26T01:19:16;6.17;;;3.27;;
80293;SDS011;69594;43.516;1.498;2024-02-26T01:21:41;9.17;;;3.57;;
80293;SDS011;69594;43.516;1.498;2024-02-26T01:24:07;6.90;;;3.60;;
80293;SDS011;69594;43.516;1.498;2024-02-26T01:26:32;10.50;;;3.77;;
80293;SDS011;69594;43.516;1.498;2024-02-26T01:28:58;6.97;;;3.57;;
80293;SDS011;69594;43.516;1.498;2024-02-26T01:31:24;9.73;;;4.10;;
80293;SDS011;69594;43.516;1.498;2024-02-26T01:33:49;8.33;;;3.90;;
80293;SDS011;69594;43.516;1.498;2024-02-26T01:36:15;12.53;;;3.80;;
80293;SDS011;69594;43.516;1.498;2024-02-26T01:38:40;8.20;;;3.88;;
80293;SDS011;69594;43.516;1.498;2024-02-26T01:41:06;6.83;;;3.30;;
80293;SDS011;69594;43.516;1.498;2024-02-26T01:43:31;9.37;;;4.00;;
80293;SDS011;69594;43.516;1.498;2024-02-26T01:45:57;9.95;;;4.25;;
80293;SDS011;69594;43.516;1.498;2024-02-26T01:48:23;8.98;;;3.95;;
80293;SDS011;69594;43.516;1.498;2024-02-26T01:50:49;9.87;;;3.60;;
80293;SDS011;69594;43.516;1.498;2024-02-26T01:53:15;10.40;;;4.10;;
80293;SDS011;69594;43.516;1.498;2024-02-26T01:55:41;10.32;;;4.35;;
80293;SDS011;69594;43.516;1.498;2024-02-26T01:58:07;13.03;;;5.27;;
80293;SDS011;69594;43.516;1.498;2024-02-26T02:00:34;11.40;;;4.97;;
80293;SDS011;69594;43.516;1.498;2024-02-26T02:03:00;10.47;;;3.73;;
80293;SDS011;69594;43.516;1.498;2024-02-26T02:05:27;10.73;;;3.42;;
80293;SDS011;69594;43.516;1.498;2024-02-26T02:07:53;12.75;;;4.68;;
80293;SDS011;69594;43.516;1.498;2024-02-26T02:10:19;14.27;;;5.70;;
80293;SDS011;69594;43.516;1.498;2024-02-26T02:12:48;17.20;;;5.47;;
80293;SDS011;69594;43.516;1.498;2024-02-26T02:15:14;11.82;;;4.30;;
80293;SDS011;69594;43.516;1.498;2024-02-26T02:17:40;10.23;;;3.27;;
80293;SDS011;69594;43.516;1.498;2024-02-26T02:20:09;10.23;;;3.28;;
80293;SDS011;69594;43.516;1.498;2024-02-26T02:22:40;10.63;;;2.85;;
80293;SDS011;69594;43.516;1.498;2024-02-26T02:25:05;8.93;;;2.97;;
80293;SDS011;69594;43.516;1.498;2024-02-26T02:27:31;11.13;;;2.22;;
80293;SDS011;69594;43.516;1.498;2024-02-26T02:29:57;10.60;;;2.60;;
80293;SDS011;69594;43.516;1.498;2024-02-26T02:32:23;6.45;;;2.00;;
80293;SDS011;69594;43.516;1.498;2024-02-26T02:34:50;9.32;;;1.95;;
80293;SDS011;69594;43.516;1.498;2024-02-26T02:37:16;10.40;;;2.80;;
80293;SDS011;69594;43.516;1.498;2024-02-26T02:39:41;14.35;;;3.50;;
80293;SDS011;69594;43.516;1.498;2024-02-26T02:42:08;11.70;;;2.55;;
80293;SDS011;69594;43.516;1.498;2024-02-26T02:44:34;8.65;;;2.88;;
80293;SDS011;69594;43.516;1.498;2024-02-26T02:47:00;12.80;;;3.20;;
80293;SDS011;69594;43.516;1.498;2024-02-26T02:49:25;16.00;;;4.83;;
80293;SDS011;69594;43.516;1.498;2024-02-26T02:51:51;12.85;;;3.67;;
80293;SDS011;69594;43.516;1.498;2024-02-26T02:54:18;12.40;;;4.47;;
80293;SDS011;69594;43.516;1.498;2024-02-26T02:56:44;13.00;;;4.43;;
80293;SDS011;69594;43.516;1.498;2024-02-26T02:59:09;11.03;;;3.77;;
80293;SDS011;69594;43.516;1.498;2024-02-26T03:01:35;14.77;;;3.63;;
80293;SDS011;69594;43.516;1.498;2024-02-26T03:04:00;12.40;;;4.03;;
80293;SDS011;69594;43.516;1.498;2024-02-26T03:06:26;12.97;;;3.87;;
80293;SDS011;69594;43.516;1.498;2024-02-26T03:08:53;13.57;;;5.00;;
80293;SDS011;69594;43.516;1.498;2024-02-26T03:11:19;10.95;;;3.88;;
80293;SDS011;69594;43.516;1.498;2024-02-26T03:13:45;13.27;;;4.13;;
80293;SDS011;69594;43.516;1.498;2024-02-26T03:16:11;12.93;;;3.75;;
80293;SDS011;69594;43.516;1.498;2024-02-26T03:18:40;12.57;;;3.53;;
80293;SDS011;69594;43.516;1.498;2024-02-26T03:21:05;11.88;;;3.30;;
80293;SDS011;69594;43.516;1.498;2024-02-26T03:23:31;10.10;;;2.58;;
80293;SDS011;69594;43.516;1.498;2024-02-26T03:26:01;10.25;;;2.17;;
80293;SDS011;69594;43.516;1.498;2024-02-26T03:28:30;10.23;;;2.00;;
80293;SDS011;69594;43.516;1.498;2024-02-26T03:30:58;11.90;;;2.25;;
80293;SDS011;69594;43.516;1.498;2024-02-26T03:33:24;8.35;;;1.42;;
80293;SDS011;69594;43.516;1.498;2024-02-26T03:35:49;8.37;;;2.03;;
80293;SDS011;69594;43.516;1.498;2024-02-26T03:38:15;9.95;;;2.05;;
80293;SDS011;69594;43.516;1.498;2024-02-26T03:40:40;7.40;;;1.90;;
80293;SDS011;69594;43.516;1.498;2024-02-26T03:43:06;11.10;;;1.87;;
80293;SDS011;69594;43.516;1.498;2024-02-26T03:45:32;10.32;;;1.60;;
80293;SDS011;69594;43.516;1.498;2024-02-26T03:47:58;9.60;;;1.77;;
80293;SDS011;69594;43.516;1.498;2024-02-26T03:50:24;8.10;;;2.17;;
80293;SDS011;69594;43.516;1.498;2024-02-26T03:52:50;9.85;;;1.20;;
80293;SDS011;69594;43.516;1.498;2024-02-26T03:55:15;7.63;;;1.27;;
80293;SDS011;69594;43.516;1.498;2024-02-26T03:57:45;9.05;;;1.50;;
80293;SDS011;69594;43.516;1.498;2024-02-26T04:00:11;9.10;;;1.40;;
80293;SDS011;69594;43.516;1.498;2024-02-26T04:02:37;9.53;;;1.60;;
80293;SDS011;69594;43.516;1.498;2024-02-26T04:05:03;7.88;;;1.30;;
80293;SDS011;69594;43.516;1.498;2024-02-26T04:07:29;7.28;;;1.30;;
80293;SDS011;69594;43.516;1.498;2024-02-26T04:09:55;6.23;;;1.10;;
80293;SDS011;69594;43.516;1.498;2024-02-26T04:12:21;10.38;;;1.60;;
80293;SDS011;69594;43.516;1.498;2024-02-26T04:14:46;7.43;;;1.20;;
80293;SDS011;69594;43.516;1.498;2024-02-26T04:17:12;4.80;;;1.00;;
80293;SDS011;69594;43.516;1.498;2024-02-26T04:19:37;6.22;;;1.30;;
80293;SDS011;69594;43.516;1.498;2024-02-26T04:22:03;4.50;;;1.10;;
80293;SDS011;69594;43.516;1.498;2024-02-26T04:24:28;4.88;;;1.20;;
80293;SDS011;69594;43.516;1.498;2024-02-26T04:26:54;3.58;;;1.00;;
80293;SDS011;69594;43.516;1.498;2024-02-26T04:29:20;4.83;;;1.10;;
80293;SDS011;69594;43.516;1.498;2024-02-26T04:31:45;2.90;;;1.10;;
80293;SDS011;69594;43.516;1.498;2024-02-26T04:34:11;5.30;;;1.20;;
80293;SDS011;69594;43.516;1.498;2024-02-26T04:36:37;4.65;;;1.45;;
80293;SDS011;69594;43.516;1.498;2024-02-26T04:39:03;4.83;;;1.20;;
80293;SDS011;69594;43.516;1.498;2024-02-26T04:41:28;6.50;;;1.52;;
80293;SDS011;69594;43.516;1.498;2024-02-26T04:43:54;6.27;;;1.30;;
80293;SDS011;69594;43.516;1.498;2024-02-26T04:46:19;2.70;;;1.00;;
80293;SDS011;69594;43.516;1.498;2024-02-26T04:48:47;5.85;;;1.27;;
80293;SDS011;69594;43.516;1.498;2024-02-26T04:51:12;5.37;;;0.93;;
80293;SDS011;69594;43.516;1.498;2024-02-26T04:53:37;8.53;;;1.10;;
80293;SDS011;69594;43.516;1.498;2024-02-26T04:56:03;6.50;;;0.80;;
80293;SDS011;69594;43.516;1.498;2024-02-26T04:58:29;3.30;;;1.10;;
80293;SDS011;69594;43.516;1.498;2024-02-26T05:00:55;4.88;;;1.02;;
80293;SDS011;69594;43.516;1.498;2024-02-26T05:03:20;3.60;;;0.80;;
80293;SDS011;69594;43.516;1.498;2024-02-26T05:05:46;4.03;;;1.40;;
80293;SDS011;69594;43.516;1.498;2024-02-26T05:08:12;4.10;;;1.07;;
80293;SDS011;69594;43.516;1.498;2024-02-26T05:10:37;4.28;;;1.02;;
80293;SDS011;69594;43.516;1.498;2024-02-26T05:13:06;5.43;;;1.30;;
80293;SDS011;69594;43.516;1.498;2024-02-26T05:15:32;5.50;;;1.30;;
80293;SDS011;69594;43.516;1.498;2024-02-26T05:17:57;3.58;;;0.95;;
80293;SDS011;69594;43.516;1.498;2024-02-26T05:20:24;4.72;;;1.05;;
80293;SDS011;69594;43.516;1.498;2024-02-26T05:22:49;6.88;;;1.00;;
80293;SDS011;69594;43.516;1.498;2024-02-26T05:25:15;2.80;;;1.00;;
80293;SDS011;69594;43.516;1.498;2024-02-26T05:27:42;2.63;;;0.80;;
80293;SDS011;69594;43.516;1.498;2024-02-26T05:30:09;3.10;;;0.88;;
80293;SDS011;69594;43.516;1.498;2024-02-26T05:32:35;4.80;;;0.88;;
80293;SDS011;69594;43.516;1.498;2024-02-26T05:35:01;3.33;;;0.90;;
80293;SDS011;69594;43.516;1.498;2024-02-26T05:37:28;3.63;;;0.73;;
80293;SDS011;69594;43.516;1.498;2024-02-26T05:39:54;4.03;;;0.88;;
80293;SDS011;69594;43.516;1.498;2024-02-26T05:42:20;5.87;;;1.20;;
80293;SDS011;69594;43.516;1.498;2024-02-26T05:44:46;4.60;;;1.13;;
80293;SDS011;69594;43.516;1.498;2024-02-26T05:47:11;2.95;;;0.80;;
80293;SDS011;69594;43.516;1.498;2024-02-26T05:49:37;5.45;;;1.10;;
80293;SDS011;69594;43.516;1.498;2024-02-26T05:52:03;2.85;;;0.88;;
80293;SDS011;69594;43.516;1.498;2024-02-26T05:54:28;5.27;;;1.33;;
80293;SDS011;69594;43.516;1.498;2024-02-26T05:56:54;3.50;;;1.17;;
80293;SDS011;69594;43.516;1.498;2024-02-26T05:59:19;4.17;;;0.93;;
80293;SDS011;69594;43.516;1.498;2024-02-26T06:01:45;3.67;;;0.90;;
80293;SDS011;69594;43.516;1.498;2024-02-26T06:04:10;4.20;;;1.00;;
80293;SDS011;69594;43.516;1.498;2024-02-26T06:06:37;1.77;;;0.70;;
80293;SDS011;69594;43.516;1.498;2024-02-26T06:09:03;3.58;;;0.73;;
80293;SDS011;69594;43.516;1.498;2024-02-26T06:11:30;4.68;;;0.80;;
80293;SDS011;69594;43.516;1.498;2024-02-26T06:13:56;6.10;;;0.82;;
80293;SDS011;69594;43.516;1.498;2024-02-26T06:16:21;0.93;;;0.50;;
80293;SDS011;69594;43.516;1.498;2024-02-26T06:18:47;3.10;;;0.70;;
80293;SDS011;69594;43.516;1.498;2024-02-26T06:21:13;2.30;;;0.60;;
80293;SDS011;69594;43.516;1.498;2024-02-26T06:23:39;3.93;;;0.70;;
80293;SDS011;69594;43.516;1.498;2024-02-26T06:26:05;1.30;;;0.70;;
80293;SDS011;69594;43.516;1.498;2024-02-26T06:28:31;4.03;;;0.80;;
80293;SDS011;69594;43.516;1.498;2024-02-26T06:30:58;3.40;;;0.80;;
80293;SDS011;69594;43.516;1.498;2024-02-26T06:33:24;3.67;;;0.90;;
80293;SDS011;69594;43.516;1.498;2024-02-26T06:35:49;3.13;;;0.90;;
80293;SDS011;69594;43.516;1.498;2024-02-26T06:38:15;3.03;;;0.60;;
80293;SDS011;69594;43.516;1.498;2024-02-26T06:40:41;9.35;;;1.17;;
80293;SDS011;69594;43.516;1.498;2024-02-26T06:43:06;2.57;;;1.13;;
80293;SDS011;69594;43.516;1.498;2024-02-26T06:45:32;5.13;;;1.23;;
80293;SDS011;69594;43.516;1.498;2024-02-26T06:47:57;3.33;;;1.07;;
80293;SDS011;69594;43.516;1.498;2024-02-26T06:50:23;4.50;;;1.20;;
80293;SDS011;69594;43.516;1.498;2024-02-26T06:52:49;2.50;;;1.23;;
80293;SDS011;69594;43.516;1.498;2024-02-26T06:55:14;4.03;;;1.47;;
80293;SDS011;69594;43.516;1.498;2024-02-26T06:57:40;3.10;;;1.30;;
80293;SDS011;69594;43.516;1.498;2024-02-26T07:00:05;3.27;;;1.60;;
80293;SDS011;69594;43.516;1.498;2024-02-26T07:02:31;5.65;;;1.45;;
80293;SDS011;69594;43.516;1.498;2024-02-26T07:04:57;1.47;;;0.57;;
80293;SDS011;69594;43.516;1.498;2024-02-26T07:07:23;2.45;;;0.77;;
80293;SDS011;69594;43.516;1.498;2024-02-26T07:09:49;2.53;;;0.70;;
80293;SDS011;69594;43.516;1.498;2024-02-26T07:12:15;3.20;;;0.73;;
80293;SDS011;69594;43.516;1.498;2024-02-26T07:14:41;2.15;;;0.70;;
80293;SDS011;69594;43.516;1.498;2024-02-26T07:17:07;1.63;;;0.88;;
80293;SDS011;69594;43.516;1.498;2024-02-26T07:19:33;6.87;;;1.00;;
80293;SDS011;69594;43.516;1.498;2024-02-26T07:21:59;3.25;;;1.00;;
80293;SDS011;69594;43.516;1.498;2024-02-26T07:24:26;2.70;;;1.33;;
80293;SDS011;69594;43.516;1.498;2024-02-26T07:26:53;2.55;;;0.75;;
80293;SDS011;69594;43.516;1.498;2024-02-26T07:29:19;1.77;;;0.80;;
80293;SDS011;69594;43.516;1.498;2024-02-26T07:31:45;3.22;;;0.90;;
80293;SDS011;69594;43.516;1.498;2024-02-26T07:34:10;2.37;;;0.90;;
80293;SDS011;69594;43.516;1.498;2024-02-26T07:36:36;14.07;;;1.48;;
80293;SDS011;69594;43.516;1.498;2024-02-26T07:39:02;2.53;;;0.80;;
80293;SDS011;69594;43.516;1.498;2024-02-26T07:41:27;3.53;;;1.15;;
80293;SDS011;69594;43.516;1.498;2024-02-26T07:43:53;1.80;;;1.00;;
80293;SDS011;69594;43.516;1.498;2024-02-26T07:46:19;2.65;;;0.90;;
80293;SDS011;69594;43.516;1.498;2024-02-26T07:48:44;3.23;;;1.20;;
80293;SDS011;69594;43.516;1.498;2024-02-26T07:51:12;6.60;;;1.57;;
80293;SDS011;69594;43.516;1.498;2024-02-26T07:53:39;2.25;;;1.20;;
80293;SDS011;69594;43.516;1.498;2024-02-26T07:56:05;3.22;;;1.02;;
80293;SDS011;69594;43.516;1.498;2024-02-26T07:58:32;4.80;;;1.27;;
80293;SDS011;69594;43.516;1.498;2024-02-26T08:00:57;1.63;;;1.30;;
80293;SDS011;69594;43.516;1.498;2024-02-26T08:03:22;4.40;;;1.40;;
80293;SDS011;69594;43.516;1.498;2024-02-26T08:05:48;4.17;;;1.20;;
80293;SDS011;69594;43.516;1.498;2024-02-26T08:08:13;1.83;;;1.03;;
80293;SDS011;69594;43.516;1.498;2024-02-26T08:10:39;3.67;;;0.95;;
80293;SDS011;69594;43.516;1.498;2024-02-26T08:13:04;3.67;;;1.20;;
80293;SDS011;69594;43.516;1.498;2024-02-26T08:15:32;4.30;;;1.63;;
80293;SDS011;69594;43.516;1.498;2024-02-26T08:17:59;2.55;;;1.30;;
80293;SDS011;69594;43.516;1.498;2024-02-26T08:20:27;4.63;;;0.80;;
80293;SDS011;69594;43.516;1.498;2024-02-26T08:22:53;3.33;;;1.10;;
80293;SDS011;69594;43.516;1.498;2024-02-26T08:25:18;2.83;;;2.23;;
80293;SDS011;69594;43.516;1.498;2024-02-26T08:27:43;5.43;;;1.40;;
80293;SDS011;69594;43.516;1.498;2024-02-26T08:30:09;3.40;;;1.20;;
80293;SDS011;69594;43.516;1.498;2024-02-26T08:32:35;1.90;;;1.00;;
80293;SDS011;69594;43.516;1.498;2024-02-26T08:35:00;2.75;;;1.27;;
80293;SDS011;69594;43.516;1.498;2024-02-26T08:37:26;4.77;;;1.40;;
80293;SDS011;69594;43.516;1.498;2024-02-26T08:39:51;4.40;;;1.50;;
80293;SDS011;69594;43.516;1.498;2024-02-26T08:42:17;5.17;;;1.43;;
80293;SDS011;69594;43.516;1.498;2024-02-26T08:44:42;3.70;;;1.60;;
80293;SDS011;69594;43.516;1.498;2024-02-26T08:47:08;5.10;;;1.55;;
80293;SDS011;69594;43.516;1.498;2024-02-26T08:49:33;5.13;;;1.37;;
80293;SDS011;69594;43.516;1.498;2024-02-26T08:51:59;5.50;;;1.50;;
80293;SDS011;69594;43.516;1.498;2024-02-26T08:54:24;3.23;;;1.20;;
80293;SDS011;69594;43.516;1.498;2024-02-26T08:56:51;2.78;;;1.20;;
80293;SDS011;69594;43.516;1.498;2024-02-26T08:59:16;4.45;;;1.48;;
80293;SDS011;69594;43.516;1.498;2024-02-26T09:01:44;5.83;;;1.40;;
80293;SDS011;69594;43.516;1.498;2024-02-26T09:04:10;5.10;;;1.10;;
80293;SDS011;69594;43.516;1.498;2024-02-26T09:06:35;4.50;;;1.53;;
80293;SDS011;69594;43.516;1.498;2024-02-26T09:09:02;4.13;;;1.07;;
80293;SDS011;69594;43.516;1.498;2024-02-26T09:11:29;3.25;;;1.10;;
80293;SDS011;69594;43.516;1.498;2024-02-26T09:13:54;4.37;;;1.17;;
80293;SDS011;69594;43.516;1.498;2024-02-26T09:16:19;2.00;;;0.80;;
80293;SDS011;69594;43.516;1.498;2024-02-26T09:18:45;3.83;;;1.37;;
80293;SDS011;69594;43.516;1.498;2024-02-26T09:21:10;4.47;;;1.07;;
80293;SDS011;69594;43.516;1.498;2024-02-26T09:23:36;2.60;;;0.87;;
80293;SDS011;69594;43.516;1.498;2024-02-26T09:26:01;4.47;;;1.10;;
80293;SDS011;69594;43.516;1.498;2024-02-26T09:28:27;6.03;;;2.27;;
80293;SDS011;69594;43.516;1.498;2024-02-26T09:30:52;3.53;;;0.90;;
80293;SDS011;69594;43.516;1.498;2024-02-26T09:33:18;5.80;;;1.08;;
80293;SDS011;69594;43.516;1.498;2024-02-26T09:35:44;2.97;;;0.87;;
80293;SDS011;69594;43.516;1.498;2024-02-26T09:38:09;4.63;;;1.02;;
80293;SDS011;69594;43.516;1.498;2024-02-26T09:40:35;4.07;;;1.00;;
80293;SDS011;69594;43.516;1.498;2024-02-26T09:43:02;3.78;;;1.00;;
80293;SDS011;69594;43.516;1.498;2024-02-26T09:45:30;5.03;;;1.33;;
80293;SDS011;69594;43.516;1.498;2024-02-26T09:47:58;5.47;;;0.90;;
80293;SDS011;69594;43.516;1.498;2024-02-26T09:50:23;6.30;;;1.10;;
80293;SDS011;69594;43.516;1.498;2024-02-26T09:52:49;4.80;;;1.83;;
80293;SDS011;69594;43.516;1.498;2024-02-26T09:55:15;3.63;;;1.35;;
80293;SDS011;69594;43.516;1.498;2024-02-26T09:57:45;3.80;;;0.80;;
80293;SDS011;69594;43.516;1.498;2024-02-26T10:00:15;1.70;;;0.80;;
80293;SDS011;69594;43.516;1.498;2024-02-26T10:02:41;3.53;;;0.80;;
80293;SDS011;69594;43.516;1.498;2024-02-26T10:05:07;2.30;;;0.77;;
80293;SDS011;69594;43.516;1.498;2024-02-26T10:07:37;3.20;;;0.80;;
80293;SDS011;69594;43.516;1.498;2024-02-26T10:10:03;2.78;;;0.90;;
80293;SDS011;69594;43.516;1.498;2024-02-26T10:12:28;4.27;;;0.87;;
80293;SDS011;69594;43.516;1.498;2024-02-26T10:14:56;3.60;;;0.88;;
80293;SDS011;69594;43.516;1.498;2024-02-26T10:17:21;1.53;;;0.70;;
80293;SDS011;69594;43.516;1.498;2024-02-26T10:19:47;3.15;;;0.80;;
80293;SDS011;69594;43.516;1.498;2024-02-26T10:22:13;2.10;;;0.60;;
80293;SDS011;69594;43.516;1.498;2024-02-26T10:24:39;2.17;;;0.93;;
80293;SDS011;69594;43.516;1.498;2024-02-26T10:27:04;6.85;;;1.10;;
80293;SDS011;69594;43.516;1.498;2024-02-26T10:29:30;5.00;;;0.87;;
80293;SDS011;69594;43.516;1.498;2024-02-26T10:31:56;6.22;;;1.58;;
80293;SDS011;69594;43.516;1.498;2024-02-26T10:34:22;3.60;;;0.80;;
80293;SDS011;69594;43.516;1.498;2024-02-26T10:36:48;7.38;;;1.88;;
80293;SDS011;69594;43.516;1.498;2024-02-26T10:39:14;3.80;;;0.80;;
80293;SDS011;69594;43.516;1.498;2024-02-26T10:41:43;5.15;;;0.80;;
80293;SDS011;69594;43.516;1.498;2024-02-26T10:44:09;5.35;;;0.80;;
80293;SDS011;69594;43.516;1.498;2024-02-26T10:46:36;1.60;;;0.60;;
80293;SDS011;69594;43.516;1.498;2024-02-26T10:49:01;5.35;;;1.05;;
80293;SDS011;69594;43.516;1.498;2024-02-26T10:51:28;2.73;;;0.90;;
80293;SDS011;69594;43.516;1.498;2024-02-26T10:53:57;4.85;;;0.88;;
80293;SDS011;69594;43.516;1.498;2024-02-26T10:56:27;3.67;;;0.85;;
80293;SDS011;69594;43.516;1.498;2024-02-26T10:58:53;5.05;;;0.85;;
80293;SDS011;69594;43.516;1.498;2024-02-26T11:01:20;5.85;;;0.88;;
80293;SDS011;69594;43.516;1.498;2024-02-26T11:03:47;8.17;;;1.10;;
80293;SDS011;69594;43.516;1.498;2024-02-26T11:06:13;12.27;;;1.52;;
80293;SDS011;69594;43.516;1.498;2024-02-26T11:08:39;7.13;;;0.93;;
80293;SDS011;69594;43.516;1.498;2024-02-26T11:11:05;3.85;;;0.80;;
80293;SDS011;69594;43.516;1.498;2024-02-26T11:13:32;1.67;;;0.73;;
80293;SDS011;69594;43.516;1.498;2024-02-26T11:15:57;12.55;;;1.67;;
80293;SDS011;69594;43.516;1.498;2024-02-26T11:18:26;5.60;;;0.88;;
80293;SDS011;69594;43.516;1.498;2024-02-26T11:20:52;2.30;;;0.80;;
80293;SDS011;69594;43.516;1.498;2024-02-26T11:23:20;26.10;;;2.88;;
80293;SDS011;69594;43.516;1.498;2024-02-26T11:25:45;2.20;;;0.83;;
80293;SDS011;69594;43.516;1.498;2024-02-26T11:28:13;3.13;;;0.70;;
80293;SDS011;69594;43.516;1.498;2024-02-26T11:30:41;1.83;;;0.68;;
80293;SDS011;69594;43.516;1.498;2024-02-26T11:33:08;3.20;;;0.90;;
80293;SDS011;69594;43.516;1.498;2024-02-26T11:35:36;2.55;;;0.77;;
80293;SDS011;69594;43.516;1.498;2024-02-26T11:38:01;2.42;;;0.70;;
80293;SDS011;69594;43.516;1.498;2024-02-26T11:40:28;2.92;;;0.80;;
80293;SDS011;69594;43.516;1.498;2024-02-26T11:42:54;2.23;;;1.20;;
80293;SDS011;69594;43.516;1.498;2024-02-26T11:48:03;3.25;;;1.25;;
80293;SDS011;69594;43.516;1.498;2024-02-26T11:50:41;1.95;;;0.70;;
80293;SDS011;69594;43.516;1.498;2024-02-26T11:55:44;4.90;;;1.25;;
80293;SDS011;69594;43.516;1.498;2024-02-26T11:58:09;2.17;;;0.90;;
80293;SDS011;69594;43.516;1.498;2024-02-26T12:00:35;2.53;;;0.70;;
80293;SDS011;69594;43.516;1.498;2024-02-26T12:03:00;1.50;;;0.60;;
80293;SDS011;69594;43.516;1.498;2024-02-26T12:05:30;1.98;;;0.70;;
80293;SDS011;69594;43.516;1.498;2024-02-26T12:08:00;1.50;;;0.70;;
80293;SDS011;69594;43.516;1.498;2024-02-26T12:10:32;3.90;;;0.73;;
80293;SDS011;69594;43.516;1.498;2024-02-26T12:13:14;3.38;;;0.90;;
80293;SDS011;69594;43.516;1.498;2024-02-26T12:15:44;2.97;;;0.70;;
80293;SDS011;69594;43.516;1.498;2024-02-26T12:18:10;1.20;;;0.70;;
80293;SDS011;69594;43.516;1.498;2024-02-26T12:20:36;1.90;;;0.63;;
80293;SDS011;69594;43.516;1.498;2024-02-26T12:23:02;1.80;;;0.98;;
80293;SDS011;69594;43.516;1.498;2024-02-26T12:25:29;1.20;;;0.88;;
80293;SDS011;69594;43.516;1.498;2024-02-26T12:27:56;19.88;;;2.80;;
80293;SDS011;69594;43.516;1.498;2024-02-26T12:30:22;4.03;;;0.80;;
80293;SDS011;69594;43.516;1.498;2024-02-26T12:32:48;2.50;;;0.80;;
80293;SDS011;69594;43.516;1.498;2024-02-26T12:35:14;1.95;;;0.70;;
80293;SDS011;69594;43.516;1.498;2024-02-26T12:37:41;2.07;;;0.63;;
80293;SDS011;69594;43.516;1.498;2024-02-26T12:40:07;1.08;;;0.60;;
80293;SDS011;69594;43.516;1.498;2024-02-26T12:42:34;1.45;;;0.60;;
80293;SDS011;69594;43.516;1.498;2024-02-26T12:45:04;1.70;;;0.70;;
80293;SDS011;69594;43.516;1.498;2024-02-26T12:47:43;2.07;;;0.50;;
80293;SDS011;69594;43.516;1.498;2024-02-26T12:50:10;1.40;;;0.55;;
80293;SDS011;69594;43.516;1.498;2024-02-26T12:52:40;1.95;;;0.95;;
80293;SDS011;69594;43.516;1.498;2024-02-26T12:55:06;3.67;;;0.98;;
80293;SDS011;69594;43.516;1.498;2024-02-26T12:57:38;1.00;;;0.50;;
80293;SDS011;69594;43.516;1.498;2024-02-26T13:00:07;1.30;;;0.57;;
80293;SDS011;69594;43.516;1.498;2024-02-26T13:02:36;0.50;;;0.40;;
80293;SDS011;69594;43.516;1.498;2024-02-26T13:05:05;3.55;;;0.60;;
80293;SDS011;69594;43.516;1.498;2024-02-26T13:07:31;1.80;;;0.60;;
80293;SDS011;69594;43.516;1.498;2024-02-26T13:09:56;1.30;;;0.70;;
80293;SDS011;69594;43.516;1.498;2024-02-26T13:12:22;1.73;;;0.60;;
80293;SDS011;69594;43.516;1.498;2024-02-26T13:14:58;1.65;;;0.60;;
80293;SDS011;69594;43.516;1.498;2024-02-26T13:17:23;2.45;;;0.60;;
80293;SDS011;69594;43.516;1.498;2024-02-26T13:19:50;1.42;;;0.63;;
80293;SDS011;69594;43.516;1.498;2024-02-26T13:22:16;1.70;;;0.60;;
80293;SDS011;69594;43.516;1.498;2024-02-26T13:24:41;4.07;;;0.60;;
80293;SDS011;69594;43.516;1.498;2024-02-26T13:27:07;2.03;;;0.57;;
80293;SDS011;69594;43.516;1.498;2024-02-26T13:29:33;1.13;;;0.50;;
80293;SDS011;69594;43.516;1.498;2024-02-26T13:31:58;0.93;;;0.60;;
80293;SDS011;69594;43.516;1.498;2024-02-26T13:34:24;0.93;;;0.40;;
80293;SDS011;69594;43.516;1.498;2024-02-26T13:36:50;0.50;;;0.50;;
80293;SDS011;69594;43.516;1.498;2024-02-26T13:39:21;1.80;;;0.47;;
80293;SDS011;69594;43.516;1.498;2024-02-26T13:41:46;1.73;;;0.70;;
80293;SDS011;69594;43.516;1.498;2024-02-26T13:44:12;1.37;;;0.53;;
80293;SDS011;69594;43.516;1.498;2024-02-26T13:46:37;2.07;;;0.40;;
80293;SDS011;69594;43.516;1.498;2024-02-26T13:49:03;1.00;;;0.65;;
80293;SDS011;69594;43.516;1.498;2024-02-26T13:51:29;2.33;;;0.70;;
80293;SDS011;69594;43.516;1.498;2024-02-26T13:54:00;3.15;;;0.90;;
80293;SDS011;69594;43.516;1.498;2024-02-26T13:56:25;2.03;;;0.60;;
80293;SDS011;69594;43.516;1.498;2024-02-26T13:58:51;1.50;;;0.50;;
80293;SDS011;69594;43.516;1.498;2024-02-26T14:01:17;5.53;;;0.67;;
80293;SDS011;69594;43.516;1.498;2024-02-26T14:03:42;2.97;;;0.50;;
80293;SDS011;69594;43.516;1.498;2024-02-26T14:06:08;1.92;;;0.73;;
80293;SDS011;69594;43.516;1.498;2024-02-26T14:08:33;1.57;;;0.47;;
80293;SDS011;69594;43.516;1.498;2024-02-26T14:10:58;2.80;;;0.90;;
80293;SDS011;69594;43.516;1.498;2024-02-26T14:13:25;4.18;;;0.75;;
80293;SDS011;69594;43.516;1.498;2024-02-26T14:15:50;2.03;;;0.60;;
80293;SDS011;69594;43.516;1.498;2024-02-26T14:18:16;1.03;;;0.60;;
80293;SDS011;69594;43.516;1.498;2024-02-26T14:20:41;1.30;;;0.68;;
80293;SDS011;69594;43.516;1.498;2024-02-26T14:23:07;2.10;;;0.80;;
80293;SDS011;69594;43.516;1.498;2024-02-26T14:25:33;1.65;;;0.60;;
80293;SDS011;69594;43.516;1.498;2024-02-26T14:27:59;2.00;;;0.70;;
80293;SDS011;69594;43.516;1.498;2024-02-26T14:30:25;1.58;;;0.70;;
80293;SDS011;69594;43.516;1.498;2024-02-26T14:32:51;1.55;;;0.60;;
80293;SDS011;69594;43.516;1.498;2024-02-26T14:35:17;0.80;;;0.50;;
80293;SDS011;69594;43.516;1.498;2024-02-26T14:37:42;2.85;;;0.85;;
80293;SDS011;69594;43.516;1.498;2024-02-26T14:40:11;0.50;;;0.50;;
80293;SDS011;69594;43.516;1.498;2024-02-26T14:42:36;0.55;;;0.45;;
80293;SDS011;69594;43.516;1.498;2024-02-26T14:45:02;0.43;;;0.40;;